createdAt,value
2023-09-07T00:01:39.134Z,95586.81
2023-09-07T00:04:07.657Z,95595.16
2023-09-07T00:06:35.666Z,95590.03
2023-09-07T00:09:07.035Z,95585.47
2023-09-07T00:11:34.911Z,95590.84
2023-09-07T00:14:02.088Z,95583.31
2023-09-07T00:16:29.262Z,95587.34
2023-09-07T00:18:56.336Z,95585.72
2023-09-07T00:21:23.421Z,95583.31
2023-09-07T00:23:50.543Z,95580.34
2023-09-07T00:26:17.652Z,95577.66
2023-09-07T00:28:45.349Z,95586.25
2023-09-07T00:31:12.656Z,95590.25
2023-09-07T00:33:39.803Z,95586.19
2023-09-07T00:36:07.128Z,95578.69
2023-09-07T00:38:34.485Z,95585.94
2023-09-07T00:41:01.608Z,95582.72
2023-09-07T00:43:28.899Z,95579.75
2023-09-07T00:45:56.206Z,95572.22
2023-09-07T00:48:23.433Z,95576.81
2023-09-07T00:50:50.619Z,95581.88
2023-09-07T00:53:18.923Z,95584.84
2023-09-07T00:55:47.126Z,95575.44
2023-09-07T00:58:14.435Z,95571.66
2023-09-07T01:00:42.075Z,95573.56
2023-09-07T01:03:10.102Z,95573.00
2023-09-07T01:05:53.378Z,95571.38
2023-09-07T01:08:27.910Z,95565.75
2023-09-07T01:10:55.107Z,95570.88
2023-09-07T01:13:22.353Z,95564.44
2023-09-07T01:15:49.845Z,95570.34
2023-09-07T01:18:24.825Z,95563.34
2023-09-07T01:21:12.516Z,95558.25
2023-09-07T01:23:43.001Z,95563.63
2023-09-07T01:26:10.890Z,95564.44
2023-09-07T01:28:38.814Z,95564.97
2023-09-07T01:31:07.290Z,95565.53
2023-09-07T01:33:34.323Z,95564.72
2023-09-07T01:36:01.530Z,95562.28
2023-09-07T01:38:28.786Z,95557.19
2023-09-07T01:40:56.075Z,95561.75
2023-09-07T01:43:23.094Z,95552.63
2023-09-07T01:45:50.278Z,95559.03
2023-09-07T01:48:17.570Z,95559.03
2023-09-07T01:50:44.861Z,95555.84
2023-09-07T01:53:12.119Z,95556.91
2023-09-07T01:55:39.309Z,95556.34
2023-09-07T01:58:06.491Z,95557.44
2023-09-07T02:00:39.120Z,95555.28
2023-09-07T02:03:07.502Z,95556.09
2023-09-07T02:05:35.325Z,95548.88
2023-09-07T02:08:02.548Z,95557.69
2023-09-07T02:10:29.584Z,95553.41
2023-09-07T02:12:58.040Z,95548.88
2023-09-07T02:15:25.348Z,95557.97
2023-09-07T02:17:53.811Z,95561.72
2023-09-07T02:20:22.557Z,95560.66
2023-09-07T02:22:49.688Z,95556.63
2023-09-07T02:25:16.913Z,95554.44
2023-09-07T02:27:43.876Z,95561.16
2023-09-07T02:30:11.375Z,95572.94
2023-09-07T02:32:38.555Z,95565.97
2023-09-07T02:35:06.093Z,95556.28
2023-09-07T02:37:33.260Z,95566.22
2023-09-07T02:40:00.244Z,95565.44
2023-09-07T02:42:27.235Z,95569.97
2023-09-07T02:44:54.716Z,95566.50
2023-09-07T02:47:22.650Z,95561.94
2023-09-07T02:49:49.596Z,95571.84
2023-09-07T02:52:17.637Z,95571.59
2023-09-07T02:54:45.286Z,95567.28
2023-09-07T02:57:13.626Z,95562.75
2023-09-07T02:59:41.751Z,95567.84
2023-09-07T03:02:08.964Z,95567.56
2023-09-07T03:04:36.062Z,95579.34
2023-09-07T03:07:03.713Z,95568.63
2023-09-07T03:09:31.164Z,95567.84
2023-09-07T03:11:58.321Z,95569.41
2023-09-07T03:14:25.769Z,95569.13
2023-09-07T03:16:55.701Z,95561.63
2023-09-07T03:19:22.888Z,95565.38
2023-09-07T03:21:50.087Z,95562.69
2023-09-07T03:24:17.155Z,95561.91
2023-09-07T03:26:45.087Z,95565.38
2023-09-07T03:29:12.290Z,95564.03
2023-09-07T03:31:39.648Z,95571.50
2023-09-07T03:34:07.288Z,95565.88
2023-09-07T03:36:34.727Z,95574.97
2023-09-07T03:39:01.840Z,95574.44
2023-09-07T03:41:31.786Z,95579.25
2023-09-07T03:44:00.134Z,95580.53
2023-09-07T03:46:30.729Z,95569.28
2023-09-07T03:48:57.929Z,95580.25
2023-09-07T03:51:25.120Z,95572.50
2023-09-07T03:53:53.019Z,95575.66
2023-09-07T03:56:20.331Z,95582.09
2023-09-07T03:58:50.432Z,95583.41
2023-09-07T04:01:17.643Z,95581.00
2023-09-07T04:03:44.787Z,95586.88
2023-09-07T04:06:12.510Z,95582.31
2023-09-07T04:08:39.485Z,95584.13
2023-09-07T04:11:06.977Z,95580.38
2023-09-07T04:13:34.129Z,95579.56
2023-09-07T04:16:01.140Z,95572.56
2023-09-07T04:18:28.545Z,95577.41
2023-09-07T04:21:09.031Z,95579.53
2023-09-07T04:23:36.967Z,95583.25
2023-09-07T04:26:13.096Z,95576.28
2023-09-07T04:28:40.301Z,95578.19
2023-09-07T04:31:07.849Z,95576.06
2023-09-07T04:33:35.468Z,95575.78
2023-09-07T04:36:16.138Z,95583.81
2023-09-07T04:38:46.964Z,95583.56
2023-09-07T04:41:14.945Z,95584.63
2023-09-07T04:43:46.398Z,95590.78
2023-09-07T04:46:14.814Z,95580.63
2023-09-07T04:48:42.806Z,95587.59
2023-09-07T04:51:11.424Z,95581.97
2023-09-07T04:53:39.761Z,95582.25
2023-09-07T04:56:11.603Z,95586.31
2023-09-07T04:58:39.646Z,95587.41
2023-09-07T05:01:10.103Z,95585.81
2023-09-07T05:03:38.814Z,95578.88
2023-09-07T05:06:06.036Z,95588.00
2023-09-07T05:08:33.854Z,95585.88
2023-09-07T05:11:04.334Z,95592.31
2023-09-07T05:13:31.962Z,95593.16
2023-09-07T05:16:02.428Z,95593.19
2023-09-07T05:18:30.251Z,95594.53
2023-09-07T05:20:58.300Z,95595.91
2023-09-07T05:23:27.201Z,95599.13
2023-09-07T05:25:55.873Z,95600.47
2023-09-07T05:28:25.277Z,95599.16
2023-09-07T05:30:55.136Z,95605.06
2023-09-07T05:33:23.821Z,95603.97
2023-09-07T05:35:51.006Z,95606.41
2023-09-07T05:38:18.111Z,95611.22
2023-09-07T05:40:46.552Z,95610.19
2023-09-07T05:43:13.993Z,95612.59
2023-09-07T05:45:42.554Z,95617.72
2023-09-07T05:48:11.796Z,95615.56
2023-09-07T05:50:40.216Z,95619.06
2023-09-07T05:53:07.332Z,95622.25
2023-09-07T05:55:35.294Z,95625.75
2023-09-07T05:58:08.823Z,95628.19
2023-09-07T06:00:40.678Z,95632.47
2023-09-07T06:03:11.752Z,95626.06
2023-09-07T06:05:40.590Z,95621.47
2023-09-07T06:08:09.690Z,95620.16
2023-09-07T06:10:38.183Z,95620.16
2023-09-07T06:13:06.445Z,95620.69
2023-09-07T06:15:33.758Z,95621.53
2023-09-07T06:18:00.972Z,95619.63
2023-09-07T06:20:28.165Z,95622.06
2023-09-07T06:22:57.848Z,95621.00
2023-09-07T06:25:25.080Z,95624.47
2023-09-07T06:27:52.935Z,95618.03
2023-09-07T06:30:20.749Z,95621.28
2023-09-07T06:32:49.820Z,95621.28
2023-09-07T06:35:18.684Z,95628.81
2023-09-07T06:37:46.364Z,95632.28
2023-09-07T06:40:16.773Z,95632.84
2023-09-07T06:42:46.047Z,95631.78
2023-09-07T06:45:16.646Z,95624.50
2023-09-07T06:47:43.739Z,95627.19
2023-09-07T06:50:11.966Z,95633.91
2023-09-07T06:52:39.601Z,95634.69
2023-09-07T06:55:07.714Z,95633.63
2023-09-07T07:00:08.326Z,95638.50
2023-09-07T07:02:37.597Z,95638.50
2023-09-07T07:05:05.510Z,95637.94
2023-09-07T07:07:33.792Z,95633.41
2023-09-07T07:10:01.037Z,95636.66
2023-09-07T07:12:28.513Z,95630.19
2023-09-07T07:14:56.187Z,95643.59
2023-09-07T07:17:23.608Z,95639.59
2023-09-07T07:19:51.332Z,95642.84
2023-09-07T07:22:21.188Z,95634.53
2023-09-07T07:24:49.570Z,95637.75
2023-09-07T07:27:16.740Z,95634.81
2023-09-07T07:29:45.725Z,95635.63
2023-09-07T07:32:13.458Z,95652.00
2023-09-07T07:34:40.965Z,95651.72
2023-09-07T07:37:08.608Z,95641.00
2023-09-07T07:39:36.023Z,95645.03
2023-09-07T07:42:05.582Z,95644.22
2023-09-07T07:44:32.809Z,95641.81
2023-09-07T07:47:00.195Z,95641.28
2023-09-07T07:49:28.423Z,95644.78
2023-09-07T07:51:58.179Z,95636.47
2023-09-07T07:54:26.015Z,95642.38
2023-09-07T07:56:54.380Z,95645.84
2023-09-07T07:59:22.502Z,95647.47
2023-09-07T08:01:49.756Z,95648.81
2023-09-07T08:04:17.281Z,95644.81
2023-09-07T08:06:44.294Z,95648.31
2023-09-07T08:09:11.462Z,95642.66
2023-09-07T08:11:40.596Z,95650.44
2023-09-07T08:14:07.880Z,95642.13
2023-09-07T08:16:35.189Z,95644.28
2023-09-07T08:19:02.566Z,95641.31
2023-09-07T08:21:29.833Z,95648.31
2023-09-07T08:23:57.556Z,95640.81
2023-09-07T08:26:24.600Z,95647.78
2023-09-07T08:28:51.794Z,95643.75
2023-09-07T08:31:23.021Z,95648.84
2023-09-07T08:33:52.520Z,95645.91
2023-09-07T08:36:23.356Z,95651.81
2023-09-07T08:38:54.788Z,95645.38
2023-09-07T08:41:22.582Z,95644.03
2023-09-07T08:43:50.364Z,95641.91
2023-09-07T08:46:23.216Z,95653.16
2023-09-07T08:48:51.773Z,95652.88
2023-09-07T08:51:20.757Z,95648.88
2023-09-07T08:53:48.667Z,95650.47
2023-09-07T08:56:17.993Z,95651.03
2023-09-07T08:58:50.527Z,95650.75
2023-09-07T09:01:22.713Z,95653.22
2023-09-07T09:03:50.968Z,95651.03
2023-09-07T09:06:20.302Z,95649.19
2023-09-07T09:08:57.788Z,95661.25
2023-09-07T09:11:27.437Z,95653.75
2023-09-07T09:13:55.151Z,95654.28
2023-09-07T09:16:22.840Z,95656.97
2023-09-07T09:18:56.858Z,95652.94
2023-09-07T09:21:28.282Z,95647.31
2023-09-07T09:23:58.471Z,95659.38
2023-09-07T09:26:28.715Z,95652.13
2023-09-07T09:28:57.927Z,95646.47
2023-09-07T09:31:26.504Z,95640.56
2023-09-07T09:33:54.136Z,95644.06
2023-09-07T09:36:22.231Z,95643.53
2023-09-07T09:38:56.737Z,95633.34
2023-09-07T09:41:25.084Z,95635.75
2023-09-07T09:43:53.846Z,95637.88
2023-09-07T09:46:21.429Z,95635.72
2023-09-07T09:48:49.681Z,95637.88
2023-09-07T09:51:16.998Z,95640.56
2023-09-07T09:53:44.332Z,95641.91
2023-09-07T09:56:12.239Z,95640.28
2023-09-07T09:58:40.144Z,95633.28
2023-09-07T10:01:09.113Z,95636.25
2023-09-07T10:03:47.318Z,95633.31
2023-09-07T10:06:25.110Z,95635.72
2023-09-07T10:09:08.370Z,95632.75
2023-09-07T10:11:40.009Z,95634.38
2023-09-07T10:14:09.209Z,95640.00
2023-09-07T10:16:54.350Z,95636.25
2023-09-07T10:19:23.908Z,95641.06
2023-09-07T10:21:54.214Z,95637.84
2023-09-07T10:24:34.301Z,95631.66
2023-09-07T10:27:06.663Z,95630.31
2023-09-07T10:29:55.796Z,95643.47
2023-09-07T10:32:24.294Z,95636.22
2023-09-07T10:34:51.907Z,95645.38
2023-09-07T10:37:19.797Z,95642.41
2023-09-07T10:39:47.233Z,95634.06
2023-09-07T10:42:25.892Z,95635.41
2023-09-07T10:44:54.014Z,95635.94
2023-09-07T10:47:21.511Z,95643.44
2023-09-07T10:49:49.029Z,95627.06
2023-09-07T10:52:16.236Z,95640.22
2023-09-07T10:54:43.276Z,95635.09
2023-09-07T10:57:14.668Z,95629.44
2023-09-07T10:59:48.110Z,95628.38
2023-09-07T11:02:16.855Z,95626.22
2023-09-07T11:04:44.480Z,95631.31
2023-09-07T11:07:12.020Z,95621.91
2023-09-07T11:09:43.437Z,95626.75
2023-09-07T11:12:16.672Z,95618.38
2023-09-07T11:14:43.994Z,95618.91
2023-09-07T11:17:11.570Z,95637.19
2023-09-07T11:19:38.623Z,95621.88
2023-09-07T11:22:06.021Z,95618.63
2023-09-07T11:24:36.509Z,95621.03
2023-09-07T11:27:05.794Z,95613.47
2023-09-07T11:29:34.102Z,95608.66
2023-09-07T11:32:12.480Z,95612.94
2023-09-07T11:34:58.852Z,95614.53
2023-09-07T11:37:27.603Z,95615.06
2023-09-07T11:39:54.677Z,95612.09
2023-09-07T11:42:21.924Z,95616.94
2023-09-07T11:44:49.132Z,95619.34
2023-09-07T11:47:16.129Z,95611.81
2023-09-07T11:49:43.308Z,95630.06
2023-09-07T11:52:10.434Z,95604.78
2023-09-07T11:54:38.360Z,95616.06
2023-09-07T11:57:05.698Z,95607.72
2023-09-07T11:59:41.259Z,95607.50
2023-09-07T12:02:16.379Z,95604.22
2023-09-07T12:04:43.603Z,95605.06
2023-09-07T12:07:11.493Z,95613.63
2023-09-07T12:09:38.594Z,95606.09
2023-09-07T12:12:05.954Z,95603.41
2023-09-07T12:14:33.033Z,95609.31
2023-09-07T12:17:01.259Z,95602.81
2023-09-07T12:19:28.932Z,95599.88
2023-09-07T12:21:56.527Z,95608.19
2023-09-07T12:24:23.569Z,95600.13
2023-09-07T12:26:50.778Z,95587.47
2023-09-07T12:29:17.839Z,95586.91
2023-09-07T12:31:44.809Z,95597.38
2023-09-07T12:34:11.830Z,95587.94
2023-09-07T12:36:38.828Z,95586.34
2023-09-07T12:39:06.765Z,95582.81
2023-09-07T12:41:33.746Z,95582.81
2023-09-07T12:44:01.006Z,95595.44
2023-09-07T12:46:28.144Z,95579.00
2023-09-07T12:48:55.118Z,95579.22
2023-09-07T12:51:22.244Z,95574.09
2023-09-07T12:53:49.388Z,95577.81
2023-09-07T12:56:17.089Z,95585.88
2023-09-07T12:58:44.047Z,95581.53
2023-09-07T13:01:11.969Z,95582.31
2023-09-07T13:03:40.323Z,95577.16
2023-09-07T13:06:07.564Z,95563.66
2023-09-07T13:08:36.425Z,95567.09
2023-09-07T13:11:04.039Z,95565.44
2023-09-07T13:13:32.226Z,95563.50
2023-09-07T13:16:00.071Z,95567.78
2023-09-07T13:18:27.355Z,95564.19
2023-09-07T13:21:00.343Z,95560.66
2023-09-07T13:23:28.950Z,95556.81
2023-09-07T13:26:01.655Z,95560.25
2023-09-07T13:28:28.906Z,95567.50
2023-09-07T13:30:59.120Z,95560.13
2023-09-07T13:33:26.628Z,95555.50
2023-09-07T13:35:53.678Z,95554.69
2023-09-07T13:38:20.898Z,95550.81
2023-09-07T13:40:48.056Z,95546.19
2023-09-07T13:43:15.135Z,95559.59
2023-09-07T13:45:42.333Z,95551.13
2023-09-07T13:48:09.361Z,95543.25
2023-09-07T13:50:36.719Z,95546.72
2023-09-07T13:53:04.112Z,95542.06
2023-09-07T13:55:31.377Z,95550.06
2023-09-07T13:57:58.316Z,95539.19
2023-09-07T14:00:25.584Z,95534.03
2023-09-07T14:02:53.769Z,95547.44
2023-09-07T14:05:21.455Z,95540.41
2023-09-07T14:07:48.643Z,95540.63
2023-09-07T14:10:15.643Z,95538.13
2023-09-07T14:12:45.187Z,95531.06
2023-09-07T14:15:12.266Z,95536.97
2023-09-07T14:17:39.279Z,95534.50
2023-09-07T14:20:06.999Z,95536.28
2023-09-07T14:22:34.041Z,95532.72
2023-09-07T14:25:01.019Z,95530.22
2023-09-07T14:27:28.234Z,95529.66
2023-09-07T14:29:55.215Z,95520.94
2023-09-07T14:32:22.287Z,95548.16
2023-09-07T14:34:49.353Z,95531.66
2023-09-07T14:37:16.492Z,95528.38
2023-09-07T14:39:48.432Z,95527.75
2023-09-07T14:42:18.021Z,95533.38
2023-09-07T14:44:46.702Z,95536.59
2023-09-07T14:47:13.737Z,95540.59
2023-09-07T14:49:41.037Z,95530.56
2023-09-07T14:52:08.109Z,95522.16
2023-09-07T14:54:35.144Z,95531.28
2023-09-07T14:57:04.031Z,95524.16
2023-09-07T14:59:31.054Z,95525.47
2023-09-07T15:02:05.604Z,95530.28
2023-09-07T15:04:34.101Z,95536.69
2023-09-07T15:07:02.558Z,95527.19
2023-09-07T15:09:29.707Z,95528.50
2023-09-07T15:11:56.674Z,95524.09
2023-09-07T15:14:23.790Z,95513.78
2023-09-07T15:16:50.986Z,95522.09
2023-09-07T15:19:18.050Z,95526.09
2023-09-07T15:21:45.317Z,95533.94
2023-09-07T15:24:15.173Z,95519.78
2023-09-07T15:26:46.322Z,95516.50
2023-09-07T15:29:13.882Z,95521.59
2023-09-07T15:31:42.694Z,95521.81
2023-09-07T15:34:10.626Z,95520.41
2023-09-07T15:36:37.978Z,95516.59
2023-09-07T15:39:06.133Z,95522.53
2023-09-07T15:41:33.138Z,95522.22
2023-09-07T15:44:00.150Z,95514.09
2023-09-07T15:46:27.200Z,95518.91
2023-09-07T15:48:55.522Z,95528.63
2023-09-07T15:51:23.178Z,95531.53
2023-09-07T15:53:50.208Z,95519.44
2023-09-07T15:56:18.076Z,95526.34
2023-09-07T15:58:45.685Z,95526.03
2023-09-07T16:01:12.753Z,95529.25
2023-09-07T16:03:40.381Z,95523.84
2023-09-07T16:06:07.757Z,95528.94
2023-09-07T16:08:35.481Z,95522.13
2023-09-07T16:11:03.244Z,95527.53
2023-09-07T16:13:30.295Z,95524.53
2023-09-07T16:15:57.354Z,95514.00
2023-09-07T16:18:24.578Z,95514.50
2023-09-07T16:20:51.726Z,95511.81
2023-09-07T16:23:18.804Z,95513.41
2023-09-07T16:25:48.806Z,95511.81
2023-09-07T16:28:16.542Z,95506.69
2023-09-07T16:30:43.611Z,95512.91
2023-09-07T16:33:10.975Z,95512.13
2023-09-07T16:35:38.366Z,95515.13
2023-09-07T16:38:05.458Z,95513.81
2023-09-07T16:40:32.450Z,95515.22
2023-09-07T16:42:59.521Z,95512.81
2023-09-07T16:45:27.810Z,95512.31
2023-09-07T16:47:54.889Z,95512.94
2023-09-07T16:50:21.936Z,95508.63
2023-09-07T16:52:48.901Z,95518.13
2023-09-07T16:55:16.000Z,95506.78
2023-09-07T16:57:42.965Z,95504.38
2023-09-07T17:00:13.557Z,95508.50
2023-09-07T17:02:40.739Z,95514.50
2023-09-07T17:05:11.061Z,95516.41
2023-09-07T17:07:39.188Z,95520.50
2023-09-07T17:10:06.864Z,95519.22
2023-09-07T17:12:34.342Z,95521.41
2023-09-07T17:15:01.376Z,95519.28
2023-09-07T17:17:28.504Z,95527.69
2023-09-07T17:19:55.634Z,95525.63
2023-09-07T17:22:22.626Z,95519.69
2023-09-07T17:24:49.652Z,95521.88
2023-09-07T17:27:16.717Z,95525.19
2023-09-07T17:29:43.934Z,95521.19
2023-09-07T17:32:11.132Z,95528.50
2023-09-07T17:34:38.245Z,95532.59
2023-09-07T17:37:06.641Z,95531.28
2023-09-07T17:39:39.888Z,95531.88
2023-09-07T17:42:06.924Z,95535.69
2023-09-07T17:44:34.047Z,95539.50
2023-09-07T17:47:01.369Z,95545.47
2023-09-07T17:49:29.239Z,95540.69
2023-09-07T17:51:57.488Z,95546.38
2023-09-07T17:54:25.325Z,95549.38
2023-09-07T17:56:53.155Z,95552.38
2023-09-07T17:59:20.148Z,95557.28
2023-09-07T18:01:47.296Z,95549.78
2023-09-07T18:04:14.811Z,95554.63
2023-09-07T18:06:41.942Z,95556.03
2023-09-07T18:09:10.286Z,95560.91
2023-09-07T18:11:37.406Z,95565.00
2023-09-07T18:14:12.945Z,95563.41
2023-09-07T18:16:42.589Z,95566.72
2023-09-07T18:19:10.342Z,95561.09
2023-09-07T18:21:38.984Z,95564.88
2023-09-07T18:24:06.519Z,95561.66
2023-09-07T18:26:33.599Z,95565.47
2023-09-07T18:29:00.579Z,95563.38
2023-09-07T18:31:27.857Z,95569.03
2023-09-07T18:33:55.071Z,95577.44
2023-09-07T18:36:22.122Z,95572.66
2023-09-07T18:38:49.537Z,95574.81
2023-09-07T18:41:17.236Z,95574.31
2023-09-07T18:43:44.369Z,95572.22
2023-09-07T18:46:11.471Z,95569.00
2023-09-07T18:48:38.536Z,95577.41
2023-09-07T18:51:08.479Z,95576.09
2023-09-07T18:53:36.955Z,95568.56
2023-09-07T18:56:09.402Z,95571.56
2023-09-07T18:58:37.540Z,95575.66
2023-09-07T19:01:18.164Z,95575.13
2023-09-07T19:03:48.165Z,95580.00
2023-09-07T19:06:15.747Z,95581.38
2023-09-07T19:08:43.436Z,95576.28
2023-09-07T19:11:11.385Z,95584.69
2023-09-07T19:13:38.561Z,95579.53
2023-09-07T19:16:05.896Z,95580.91
2023-09-07T19:18:33.411Z,95575.28
2023-09-07T19:21:16.951Z,95578.00
2023-09-07T19:23:47.953Z,95578.91
2023-09-07T19:26:31.056Z,95582.94
2023-09-07T19:29:00.196Z,95573.28
2023-09-07T19:31:27.507Z,95579.22
2023-09-07T19:33:56.524Z,95574.94
2023-09-07T19:36:24.434Z,95577.94
2023-09-07T19:38:55.379Z,95581.19
2023-09-07T19:41:23.139Z,95572.31
2023-09-07T19:43:50.381Z,95571.78
2023-09-07T19:46:17.870Z,95569.69
2023-09-07T19:48:48.600Z,95571.56
2023-09-07T19:51:18.379Z,95571.84
2023-09-07T19:53:46.538Z,95572.44
2023-09-07T19:56:19.218Z,95573.00
2023-09-07T19:58:46.618Z,95569.53
2023-09-07T20:01:19.264Z,95563.91
2023-09-07T20:03:49.470Z,95572.25
2023-09-07T20:06:20.555Z,95565.56
2023-09-07T20:08:48.271Z,95570.44
2023-09-07T20:11:17.695Z,95574.22
2023-09-07T20:13:45.270Z,95573.72
2023-09-07T20:16:14.884Z,95570.50
2023-09-07T20:18:42.546Z,95567.31
2023-09-07T20:21:09.882Z,95567.56
2023-09-07T20:23:37.166Z,95568.16
2023-09-07T20:26:04.902Z,95565.75
2023-09-07T20:28:32.757Z,95568.44
2023-09-07T20:31:00.767Z,95562.50
2023-09-07T20:33:28.635Z,95561.19
2023-09-07T20:35:56.105Z,95567.66
2023-09-07T20:38:23.095Z,95566.84
2023-09-07T20:40:50.612Z,95565.81
2023-09-07T20:43:24.336Z,95565.81
2023-09-07T20:45:53.381Z,95571.50
2023-09-07T20:48:21.436Z,95571.00
2023-09-07T20:50:48.920Z,95572.38
2023-09-07T20:53:16.989Z,95568.06
2023-09-07T20:55:44.328Z,95563.75
2023-09-07T20:58:12.638Z,95567.03
2023-09-07T21:00:39.737Z,95567.31
2023-09-07T21:03:07.337Z,95565.72
2023-09-07T21:05:34.556Z,95567.88
2023-09-07T21:08:04.240Z,95565.50
2023-09-07T21:10:31.293Z,95558.78
2023-09-07T21:12:59.352Z,95571.72
2023-09-07T21:15:26.613Z,95564.44
2023-09-07T21:17:53.816Z,95570.13
2023-09-07T21:20:21.043Z,95563.41
2023-09-07T21:22:47.972Z,95562.63
2023-09-07T21:25:15.382Z,95572.56
2023-09-07T21:27:42.569Z,95563.97
2023-09-07T21:30:10.590Z,95558.88
2023-09-07T21:32:37.823Z,95561.03
2023-09-07T21:35:05.922Z,95557.84
2023-09-07T21:37:33.151Z,95558.91
2023-09-07T21:40:00.361Z,95562.69
2023-09-07T21:42:27.446Z,95560.28
2023-09-07T21:44:54.583Z,95559.78
2023-09-07T21:47:21.754Z,95563.53
2023-09-07T21:49:48.764Z,95560.34
2023-09-07T21:52:15.948Z,95561.44
2023-09-07T21:54:46.042Z,95557.13
2023-09-07T21:57:13.123Z,95549.59
2023-09-07T21:59:40.114Z,95552.59
2023-09-07T22:02:07.334Z,95556.38
2023-09-07T22:04:34.336Z,95554.75
2023-09-07T22:07:01.434Z,95547.78
2023-09-07T22:09:28.429Z,95551.78
2023-09-07T22:11:55.395Z,95544.00
2023-09-07T22:14:22.508Z,95545.09
2023-09-07T22:16:49.663Z,95540.00
2023-09-07T22:19:16.844Z,95541.38
2023-09-07T22:21:44.436Z,95543.03
2023-09-07T22:24:11.953Z,95538.19
2023-09-07T22:26:39.149Z,95536.34
2023-09-07T22:29:06.371Z,95535.31
2023-09-07T22:31:33.626Z,95533.47
2023-09-07T22:34:00.583Z,95533.75
2023-09-07T22:36:27.619Z,95542.66
2023-09-07T22:38:56.821Z,95541.06
2023-09-07T22:41:24.737Z,95535.44
2023-09-07T22:43:53.106Z,95540.81
2023-09-07T22:46:20.256Z,95531.13
2023-09-07T22:48:47.332Z,95524.94
2023-09-07T22:51:15.514Z,95525.25
2023-09-07T22:53:42.493Z,95526.88
2023-09-07T22:56:09.616Z,95522.06
2023-09-07T22:58:37.301Z,95530.16
2023-09-07T23:01:05.587Z,95529.41
2023-09-07T23:03:32.829Z,95524.28
2023-09-07T23:05:59.973Z,95527.31
2023-09-07T23:08:32.820Z,95525.44
2023-09-07T23:11:00.557Z,95531.66
2023-09-07T23:13:27.587Z,95530.34
2023-09-07T23:15:54.706Z,95520.16
2023-09-07T23:18:21.969Z,95522.06
2023-09-07T23:20:50.284Z,95519.66
2023-09-07T23:23:17.246Z,95518.88
2023-09-07T23:25:44.337Z,95518.63
2023-09-07T23:28:11.362Z,95514.06
2023-09-07T23:30:39.607Z,95521.88
2023-09-07T23:33:06.827Z,95517.06
2023-09-07T23:35:34.025Z,95520.31
2023-09-07T23:38:01.205Z,95524.06
2023-09-07T23:40:28.262Z,95520.88
2023-09-07T23:42:55.439Z,95518.44
2023-09-07T23:45:22.681Z,95522.22
2023-09-07T23:47:49.733Z,95519.78
2023-09-07T23:50:16.940Z,95513.34
2023-09-07T23:52:43.938Z,95516.03
2023-09-07T23:55:11.198Z,95518.97
2023-09-07T23:57:38.404Z,95519.50
